Terminal Aerodrome Forecast
Issued by NWS

Home | Current Version | Previous Version | Text Only | Print | Product List | Glossary On
Versions: 1 2 3 4 5 6 7 8 9 10 11 12 13 14 15 16 17 18 19 20 21 22 23 24 25 26 27 28 29 30 31 32 33 34 35 36 37 38 39 40 41
086
FTUS46 KLOX 192349
TAFLAX
TAF
KLAX 192349Z 2000/2106 26022G32KT P6SM VCSH SCT050 BKN090
      TEMPO 2000/2002 -SHRA SCT025 BKN050
     FM200200 35012G18KT P6SM FEW050 SCT090
     FM200800 34008KT P6SM FEW090
     FM201300 04004KT P6SM SKC
     FM202000 26012KT P6SM SKC
     FM210300 29006KT P6SM SKC=

USA.gov is the U.S. government's official web portal to all federal, state and local government web resources and services.